^^
Datos históricos de la estación: Murcia-Puente Tocinos
Diario Informe para Septiembre 27, 2021 Unidades:  Ingés    Métrico   Ambas
Diario Semanal Mensual Anual
  Máxima: Mínima: Promedio:
Temperatura: 90 °F 67.5 °F 76.6 °F
Punto de rocio: 62.8 °F 49.8 °F 58.1 °F
Humedad: 77% 27.7% 56%
Velocidad viento: 9.2mph 0mph 3.5mph
Racha viento: 17.3mph - -
Viento- - Sur
Presión: 30.1 in 30 in -
Precipitación: 0 in    
 
 
Tabla de datos para Septiembre 27, 2021
Hora Temperatura Punto de rocio Presión Viento Velocidad viento Racha viento Humedad Intensidad lluvia(por hora) Nubes
00:04 73 °F 62.8 °F 30.1 in NE 2.9 mph 4.7 mph 70% 0 in
00:09 73 °F 62.6 °F 30.1 in NE 2.9 mph 3.6 mph 70% 0 in
00:14 72.9 °F 62.6 °F 30.1 in NE 2.9 mph 4.7 mph 70.3% 0 in
00:19 72.5 °F 62.6 °F 30.1 in NE 3 mph 5.8 mph 71% 0 in
00:24 72.3 °F 62.4 °F 30.1 in NE 3.1 mph 4.6 mph 71% 0 in
00:29 72.1 °F 62.4 °F 30.1 in NE 2.9 mph 3.5 mph 71.6% 0 in
00:34 72.1 °F 62.6 °F 30.1 in NE 2.4 mph 2.9 mph 72% 0 in
00:39 72.1 °F 62.6 °F 30.1 in NE 2.2 mph 3.5 mph 72% 0 in
00:44 72 °F 62.4 °F 30.1 in NNE 1.8 mph 3.5 mph 72% 0 in
00:49 72 °F 62.6 °F 30.1 in NNE 1.9 mph 3.5 mph 72.7% 0 in
00:54 71.8 °F 62.8 °F 30.1 in NNE 2 mph 3.1 mph 73% 0 in
00:59 71.4 °F 62.4 °F 30.1 in NNE 2 mph 3.6 mph 73.1% 0 in
01:04 71.4 °F 62.8 °F 30.1 in NNE 2 mph 2.4 mph 74% 0 in
01:09 71.4 °F 62.6 °F 30.1 in NNE 1.9 mph 3.5 mph 74% 0 in
01:14 71.2 °F 62.6 °F 30.1 in NNE 1.8 mph 4.3 mph 74% 0 in
01:19 71.2 °F 62.2 °F 30.1 in ENE 2 mph 4.6 mph 73.2% 0 in
01:24 71.1 °F 61.2 °F 30.1 in ESE 2.4 mph 4.6 mph 71.4% 0 in
01:29 70.7 °F 60.1 °F 30.1 in ESE 2.4 mph 4.6 mph 69.5% 0 in
01:34 70.5 °F 60.3 °F 30.1 in ESE 2.4 mph 2.9 mph 70% 0 in
01:39 70.5 °F 60.3 °F 30.1 in ESE 2.2 mph 2.9 mph 69.8% 0 in
01:44 70.7 °F 60.4 °F 30.1 in ESE 1.8 mph 2.9 mph 70% 0 in
01:49 70.7 °F 60.4 °F 30.1 in ESE 1.7 mph 2.3 mph 70% 0 in
01:54 70.7 °F 60.4 °F 30.1 in ESE 1.4 mph   70% 0 in
01:59 70.5 °F 60.3 °F 30.1 in ESE 0.9 mph   70% 0 in
02:04 70.5 °F 60.4 °F 30.1 in Calm   2.9 mph 70.5% 0 in
02:09 70.5 °F 60.6 °F 30.1 in ESE 0.5 mph 2.4 mph 71% 0 in
02:14 70.3 °F 60.6 °F 30.1 in ESE 1.4 mph 2.9 mph 71% 0 in
02:19 70.2 °F 59.9 °F 30.1 in ESE 1.4 mph 2.4 mph 70.2% 0 in
02:24 70 °F 60.1 °F 30.1 in ESE 1.4 mph 1.4 mph 70.9% 0 in
02:29 69.8 °F 60.3 °F 30.1 in ESE 1.4 mph 4.6 mph 71.8% 0 in
02:34 70 °F 61 °F 30.1 in ESE 1.4 mph 3.6 mph 73% 0 in
02:39 70 °F 61.2 °F 30.1 in ESE 1.6 mph 2.4 mph 73.6% 0 in
02:44 70 °F 61.3 °F 30.1 in ESE 2 mph 2.9 mph 74% 0 in
02:49 70 °F 61.2 °F 30.1 in ESE 1.8 mph 3.5 mph 73.8% 0 in
02:54 70 °F 61 °F 30.1 in SE 1.4 mph 6.4 mph 73% 0 in
02:59 69.8 °F 60.4 °F 30.1 in Sur 1.9 mph 6.9 mph 72% 0 in
03:04 69.6 °F 59.7 °F 30.1 in Sur 2.9 mph 5.8 mph 71% 0 in
03:09 69.6 °F 59.5 °F 30.1 in SSO 3.1 mph 4.7 mph 70.3% 0 in
03:14 70 °F 59.5 °F 30.1 in SO 3.6 mph 4.7 mph 69.5% 0 in
03:19 70.2 °F 59.4 °F 30.1 in OSO 3.4 mph 4.7 mph 69% 0 in
03:24 70.2 °F 59.4 °F 30.1 in SO 2.9 mph 4.6 mph 68.8% 0 in
03:29 70.2 °F 59.2 °F 30.1 in SO 2.7 mph 4.6 mph 68% 0 in
03:34 70.3 °F 59.4 °F 30.1 in SO 2.4 mph 4.6 mph 68% 0 in
03:39 70.3 °F 59.4 °F 30.1 in SO 2.4 mph 3.6 mph 68% 0 in
03:44 70.3 °F 59.4 °F 30.1 in SO 2.4 mph 2.3 mph 68% 0 in
03:49 70.2 °F 59.2 °F 30.1 in SO 1.6 mph 1.2 mph 68% 0 in
03:54 70.2 °F 59.4 °F 30.1 in Calm   4.7 mph 68.7% 0 in
03:59 70 °F 59.5 °F 30.1 in SE 1.1 mph 6.2 mph 69.5% 0 in
04:04 69.4 °F 59.7 °F 30.1 in SE 2.9 mph 4.6 mph 70.8% 0 in
04:09 69.3 °F 59.5 °F 30.1 in SE 2.9 mph 4.6 mph 71.2% 0 in
04:14 69.1 °F 59.4 °F 30.1 in SSE 2.9 mph 4.7 mph 71.1% 0 in
04:19 69.1 °F 59.2 °F 30.1 in Sur 3 mph 5.8 mph 71.1% 0 in
04:24 68.9 °F 59.2 °F 30.1 in SSE 3.1 mph 4.6 mph 71% 0 in
04:29 68.9 °F 59.2 °F 30.1 in Sur 2.9 mph 3.5 mph 71% 0 in
04:34 68.9 °F 59.2 °F 30.1 in SSO 2.4 mph 3.6 mph 71% 0 in
04:39 69.1 °F 59.4 °F 30.1 in SSO 2.4 mph 4.6 mph 71% 0 in
04:44 69.3 °F 59.4 °F 30.1 in SSO 2.4 mph 4.6 mph 71% 0 in
04:49 69.3 °F 59.5 °F 30.1 in SSO 2.5 mph 4.6 mph 71% 0 in
04:54 69.3 °F 59.7 °F 30.1 in SO 2.9 mph 4.6 mph 71.9% 0 in
04:59 69.3 °F 59.7 °F 30.1 in Sur 2.9 mph 5.2 mph 72% 0 in
05:04 69.3 °F 59.9 °F 30.1 in Sur 2.9 mph 5.9 mph 72.2% 0 in
05:09 69.1 °F 60.1 °F 30.1 in Sur 3.3 mph 5.8 mph 73% 0 in
05:14 68.9 °F 60.1 °F 30.1 in Sur 4 mph 4.7 mph 73.4% 0 in
05:19 68.7 °F 60.1 °F 30.1 in Sur 3.9 mph 5.8 mph 74% 0 in
05:24 68.5 °F 60.4 °F 30.1 in SSO 3.6 mph 4.7 mph 75% 0 in
05:29 68.5 °F 60.3 °F 30.1 in SSO 3.6 mph 4.7 mph 75% 0 in
05:34 68.4 °F 60.4 °F 30.1 in SO 3.6 mph 5.9 mph 75.7% 0 in
05:39 68.4 °F 60.4 °F 30.1 in SO 3.6 mph 6.9 mph 76% 0 in
05:44 68.4 °F 60.6 °F 30.1 in SO 3.6 mph 5.9 mph 76.4% 0 in
05:49 68.4 °F 61 °F 30.1 in SO 3.6 mph 5.8 mph 77% 0 in
05:54 68.4 °F 60.6 °F 30.1 in SSO 3.6 mph 5.8 mph 76.4% 0 in
05:59 68.4 °F 60.4 °F 30.1 in SO 3.4 mph 5.9 mph 76% 0 in
06:04 68.4 °F 60.3 °F 30.1 in SSO 2.9 mph 5.2 mph 75.8% 0 in
06:09 68.2 °F 60.1 °F 30.1 in SSE 3.1 mph 6.9 mph 75% 0 in
06:14 68.2 °F 59.9 °F 30.1 in SSE 3.6 mph 7.4 mph 75% 0 in
06:15 68 °F 59.7 °F 30.1 in Sur 3.6 mph 5.8 mph 75% 0 in
06:24 67.8 °F 59.7 °F 30.1 in SSO 4.7 mph 5.8 mph 75.3% 0 in
06:29 67.8 °F 60.1 °F 30.1 in SSO 4.5 mph 5.9 mph 76% 0 in
06:34 67.8 °F 60.1 °F 30.1 in SSO 4 mph 6.9 mph 76% 0 in
06:39 67.8 °F 60.1 °F 30.1 in SO 3.9 mph 5.8 mph 76% 0 in
06:44 68 °F 60.3 °F 30.1 in SSO 3.6 mph 7.4 mph 76% 0 in
06:49 68 °F 60.1 °F 30.1 in SSO 3.6 mph 6.9 mph 76% 0 in
06:54 67.8 °F 60.1 °F 30.1 in Sur 3.6 mph 6.2 mph 76% 0 in
06:59 67.8 °F 60.1 °F 30.1 in SSO 3.7 mph 5.9 mph 76% 0 in
07:04 67.6 °F 59.9 °F 30.1 in SSO 4 mph 5.8 mph 76% 0 in
07:09 67.6 °F 59.7 °F 30.1 in SSO 3.9 mph 6.9 mph 76% 0 in
07:14 67.6 °F 59.7 °F 30.1 in SO 3.6 mph 6.9 mph 76% 0 in
07:19 67.6 °F 59.7 °F 30.1 in SO 3.6 mph 5.2 mph 76% 0 in
07:24 67.6 °F 59.7 °F 30.1 in SO 3.6 mph 6.2 mph 76% 0 in
07:29 67.6 °F 59.7 °F 30.1 in SO 3.6 mph 5.9 mph 76% 0 in
07:34 67.5 °F 59.5 °F 30.1 in SO 3.6 mph 4.7 mph 76% 0 in
07:39 67.5 °F 59.5 °F 30.1 in SO 3.4 mph 5.8 mph 76% 0 in
07:44 67.5 °F 59.5 °F 30.1 in OSO 2.9 mph 4.6 mph 76% 0 in
07:49 67.5 °F 59.5 °F 30.1 in SO 2.7 mph 4.6 mph 76% 0 in
07:54 67.5 °F 59.5 °F 30.1 in SO 2.4 mph 4.6 mph 76% 0 in
07:59 67.5 °F 59.5 °F 30.1 in Sur 2.6 mph 4.6 mph 76% 0 in
08:04 67.5 °F 59.5 °F 30.1 in Sur 2.9 mph 4.7 mph 76% 0 in
08:09 67.5 °F 59.5 °F 30.1 in SSO 3 mph 5.2 mph 76% 0 in
08:14 67.5 °F 59.5 °F 30.1 in SSO 3.1 mph 5.2 mph 76% 0 in
08:19 67.5 °F 59.5 °F 30.1 in SSO 3.3 mph 6.2 mph 76% 0 in
08:24 67.5 °F 59.5 °F 30.1 in SO 3.6 mph 6.9 mph 76% 0 in
08:29 67.6 °F 59.7 °F 30.1 in SO 3.9 mph 6.9 mph 75.9% 0 in
08:34 67.6 °F 59.4 °F 30.1 in OSO 4.3 mph 5.9 mph 75% 0 in
08:39 67.6 °F 59.5 °F 30.1 in SO 3.9 mph 5.2 mph 75.2% 0 in
08:44 67.6 °F 59.4 °F 30.1 in SO 3.1 mph 5.2 mph 75.1% 0 in
08:49 67.6 °F 59.5 °F 30.1 in OSO 3 mph 5.2 mph 75% 0 in
08:54 67.8 °F 59.5 °F 30.1 in OSO 2.9 mph 5.9 mph 75% 0 in
08:59 67.6 °F 59.5 °F 30.1 in OSO 3.3 mph 5.9 mph 75% 0 in
09:04 67.8 °F 59.5 °F 30.1 in SO 4 mph 4.6 mph 75% 0 in
09:09 68.2 °F 59.7 °F 30.1 in SSO 3.7 mph 5.2 mph 74.6% 0 in
09:14 68.4 °F 59.5 °F 30.1 in OSO 2.9 mph 5.9 mph 73.3% 0 in
09:19 68.5 °F 59.5 °F 30.1 in SO 3 mph 5.8 mph 73% 0 in
09:24 68.9 °F 59.5 °F 30.1 in SO 3.1 mph 6.2 mph 72% 0 in
09:29 69.4 °F 59.9 °F 30.1 in SSO 3.3 mph 5.8 mph 72% 0 in
09:34 69.8 °F 60.1 °F 30.1 in SSO 3.6 mph 4.6 mph 71.3% 0 in
09:39 70.2 °F 60.3 °F 30.1 in SSO 3.4 mph 4.7 mph 70.7% 0 in
09:44 70.3 °F 59.9 °F 30.1 in OSO 2.9 mph 7.4 mph 69.5% 0 in
09:49 70.5 °F 59.2 °F 30.1 in Oeste 3.3 mph 6.9 mph 67.5% 0 in
09:54 70.5 °F 59 °F 30.1 in Oeste 4 mph 5.8 mph 67% 0 in
09:59 70.7 °F 59.2 °F 30.1 in Oeste 4 mph 6.9 mph 67% 0 in
10:04 70.7 °F 59.2 °F 30.1 in OSO 4 mph 5.8 mph 67.1% 0 in
10:09 70.9 °F 59.5 °F 30.1 in Oeste 3.9 mph 5.4 mph 67.5% 0 in
10:14 71.1 °F 59.5 °F 30.1 in OSO 3.6 mph 6.2 mph 67.1% 0 in
10:19 71.4 °F 59.9 °F 30.1 in SO 3.4 mph 5.8 mph 67% 0 in
10:24 72 °F 60.1 °F 30.1 in NO 3.1 mph 5.2 mph 66% 0 in
10:29 72.7 °F 59.9 °F 30.1 in SO 2.7 mph 5.9 mph 64.5% 0 in
10:34 73 °F 59.7 °F 30.1 in SSO 2 mph 5.9 mph 63% 0 in
10:39 73 °F 59.7 °F 30.1 in OSO 2.5 mph 7.6 mph 63% 0 in
10:44 73.2 °F 59.5 °F 30.1 in OSO 3.6 mph 8.1 mph 62.5% 0 in
10:49 73.4 °F 59.5 °F 30.1 in OSO 3.9 mph 7.4 mph 61.9% 0 in
10:54 73.6 °F 59.7 °F 30.1 in Oeste 4.3 mph 6.9 mph 62% 0 in
10:59 73.8 °F 59.5 °F 30.1 in OSO 4.3 mph 7.4 mph 61.2% 0 in
11:04 73.8 °F 59.4 °F 30.1 in Oeste 4.3 mph 5.2 mph 60.5% 0 in
11:09 73.9 °F 59.2 °F 30.1 in OSO 3.8 mph 5.2 mph 60.1% 0 in
11:14 74.5 °F 59.4 °F 30.1 in SSO 2.9 mph 5.2 mph 59.4% 0 in
11:19 74.8 °F 59.2 °F 30.1 in SSE 3 mph 7.4 mph 58.3% 0 in
11:24 75.4 °F 59 °F 30.1 in Sur 3.1 mph 7.4 mph 57% 0 in
11:29 75.6 °F 59.4 °F 30.1 in SSO 3.5 mph 6.9 mph 57% 0 in
11:34 75.7 °F 59.2 °F 30.1 in Sur 4.3 mph 8.1 mph 56.5% 0 in
11:39 75.9 °F 59.2 °F 30.1 in Sur 4.2 mph 6.9 mph 56.2% 0 in
11:44 76.5 °F 59.5 °F 30.1 in Sur 4 mph 6.9 mph 55.9% 0 in
11:49 76.6 °F 59.7 °F 30.1 in SSO 4 mph 6.9 mph 55.7% 0 in
11:54 77.2 °F 59.7 °F 30.1 in Oeste 4 mph 5.8 mph 54.9% 0 in
11:59 77.7 °F 59.5 °F 30.1 in SO 3.6 mph 6.9 mph 53.6% 0 in
12:04 77.9 °F 59.4 °F 30.1 in OSO 2.9 mph 6.9 mph 53% 0 in
12:09 78.3 °F 59.7 °F 30.1 in Sur 3 mph 4.6 mph 53.1% 0 in
12:14 78.6 °F 59 °F 30.1 in OSO 3.1 mph 6.9 mph 51.1% 0 in
12:19 78.6 °F 58.6 °F 30.1 in ONO 3.2 mph 5.8 mph 50.3% 0 in
12:24 78.8 °F 58.8 °F 30.1 in OSO 3.6 mph 5.9 mph 50.5% 0 in
12:29 79.2 °F 58.8 °F 30.1 in SO 3.4 mph 5.4 mph 49.9% 0 in
12:34 79.7 °F 59 °F 30.1 in SO 3.1 mph 5.8 mph 49.1% 0 in
12:39 80.2 °F 59.2 °F 30.1 in Sur 2.9 mph 5.2 mph 48.9% 0 in
12:44 80.6 °F 59.2 °F 30.1 in ONO 2.4 mph 6.4 mph 48% 0 in
12:49 80.8 °F 59.4 °F 30.1 in Oeste 2.5 mph 6.9 mph 48% 0 in
12:54 81 °F 59.5 °F 30.1 in NO 2.9 mph 4.6 mph 48.1% 0 in
12:59 81.3 °F 59.7 °F 30.1 in Oeste 2.9 mph 6.9 mph 47.8% 0 in
13:04 81.7 °F 59.9 °F 30.1 in NNO 2.9 mph 5.2 mph 47.7% 0 in
13:09 82 °F 59.9 °F 30.1 in ONO 2.7 mph 5.8 mph 47% 0 in
13:14 82.2 °F 59.7 °F 30.1 in SO 2.4 mph 6.2 mph 46.6% 0 in
13:19 82.4 °F 59.9 °F 30.1 in Oeste 2.8 mph 6.2 mph 46.7% 0 in
13:24 82.8 °F 59.7 °F 30.1 in Oeste 3.6 mph 5.9 mph 45.9% 0 in
13:29 82.9 °F 59.5 °F 30.1 in OSO 3.4 mph 4.7 mph 45.3% 0 in
13:34 82.9 °F 59.2 °F 30.1 in NO 3.1 mph 4.6 mph 44.5% 0 in
13:39 83.5 °F 59.5 °F 30.1 in North 2.7 mph 6.2 mph 44.5% 0 in
13:44 84 °F 59.4 °F 30.1 in ESE 1.8 mph 5.8 mph 43.3% 0 in
13:49 84.6 °F 59.4 °F 30.1 in NE 2.2 mph 5.4 mph 42.6% 0 in
13:54 84.6 °F 59.2 °F 30.1 in ESE 3.1 mph 6.9 mph 42.3% 0 in
13:59 84.6 °F 59 °F 30.1 in SE 3.3 mph 4.7 mph 42.2% 0 in
14:04 84.7 °F 58.5 °F 30.1 in ESE 3.6 mph 5.2 mph 41% 0 in
14:09 85.3 °F 59 °F 30.1 in ESE 3 mph 4.6 mph 41.1% 0 in
14:14 85.5 °F 58.5 °F 30.1 in SSE 2 mph 6.2 mph 40% 0 in
14:19 85.5 °F 58.8 °F 30.1 in SSE 2.5 mph 5.9 mph 40.5% 0 in
14:24 85.8 °F 58.1 °F 30.1 in Sur 3.6 mph 4.3 mph 39.3% 0 in
14:29 86.4 °F 57.7 °F 30.1 in ESE 3 mph 4.6 mph 38% 0 in
14:34 86.9 °F 57.6 °F 30.1 in ONO 1.8 mph 5.2 mph 37.1% 0 in
14:39 87.1 °F 56.8 °F 30.1 in OSO 2 mph 3.6 mph 36% 0 in
14:44 87.4 °F 57.9 °F 30.1 in NO 2.4 mph 4.6 mph 36.9% 0 in
14:45 87.6 °F 58.1 °F 30.1 in NNO 2.4 mph 4.3 mph 37% 0 in
14:54 87.3 °F 57.7 °F 30.1 in North 2.9 mph 7.4 mph 36.8% 0 in
14:59 87.1 °F 57.2 °F 30.1 in NNO 3.2 mph 5.8 mph 36.3% 0 in
15:04 87.1 °F 57.7 °F 30.1 in NNO 3.6 mph 5.2 mph 37% 0 in
15:09 87.3 °F 57.7 °F 30.1 in ONO 3.2 mph 4.7 mph 37% 0 in
15:14 87.6 °F 57.4 °F 30.1 in ESE 2.4 mph 5.9 mph 36% 0 in
15:19 88 °F 57 °F 30.1 in ENE 2.8 mph 8.1 mph 35.1% 0 in
15:24 87.6 °F 56.7 °F 30.1 in North 3.6 mph 6.9 mph 35% 0 in
15:29 87.8 °F 56.5 °F 30.1 in ONO 3.4 mph 5.2 mph 34.8% 0 in
15:34 88.2 °F 56.3 °F 30.1 in ONO 3.1 mph 5.2 mph 34% 0 in
15:39 88.7 °F 56.7 °F 30.1 in OSO 3 mph 5.9 mph 34% 0 in
15:44 89.1 °F 56.1 °F 30.1 in Oeste 2.9 mph 4.7 mph 32.9% 0 in
15:49 89.2 °F 54.7 °F 30.1 in ESE 2.9 mph 5.4 mph 31.1% 0 in
15:54 89.2 °F 54.7 °F 30.1 in SE 2.9 mph 6.9 mph 31.1% 0 in
15:59 89.1 °F 55.2 °F 30.1 in SE 3.3 mph 9.2 mph 32% 0 in
16:04 89.1 °F 55.2 °F 30.1 in SSE 4 mph 4.6 mph 32% 0 in
16:09 89.4 °F 55.2 °F 30.1 in SSE 3.4 mph 6.9 mph 31.5% 0 in
16:14 89.6 °F 56.1 °F 30.1 in ENE 2.4 mph 6.9 mph 32.4% 0 in
16:19 89.8 °F 54.3 °F 30.1 in SSE 2.8 mph 5.9 mph 30.3% 0 in
16:24 90 °F 53.4 °F 30.1 in SSE 3.6 mph 10 mph 29% 0 in
16:29 89.6 °F 53.1 °F 30 in SE 4.3 mph 11.5 mph 28.9% 0 in
16:34 89.4 °F 53.1 °F 30 in ESE 5.9 mph 13 mph 29% 0 in
16:39 89.2 °F 52.9 °F 30 in ESE 6.2 mph 12.7 mph 29% 0 in
16:44 89.2 °F 53.1 °F 30 in SSE 6.9 mph 9.2 mph 29.3% 0 in
16:49 89.4 °F 53.1 °F 30 in SE 6.4 mph 10.7 mph 29% 0 in
16:54 89.4 °F 52.7 °F 30 in SE 5.4 mph 11.2 mph 28.7% 0 in
16:59 89.4 °F 52.7 °F 30 in SE 5.8 mph 11.5 mph 28.6% 0 in
17:04 89.4 °F 52.2 °F 30 in SE 6.4 mph 15 mph 28.1% 0 in
17:09 89.1 °F 51.8 °F 30 in ESE 7.1 mph 15 mph 28% 0 in
17:14 89.1 °F 51.8 °F 30 in ESE 8.7 mph 12.7 mph 28% 0 in
17:19 89.1 °F 51.8 °F 30 in SE 8.7 mph 14 mph 28% 0 in
17:24 89.1 °F 51.4 °F 30 in ESE 8.7 mph 16.1 mph 27.7% 0 in
17:29 88.9 °F 51.6 °F 30 in ESE 8.3 mph 12.5 mph 28.1% 0 in
17:34 89.1 °F 52 °F 30 in ESE 7.6 mph 13.8 mph 28.3% 0 in
17:39 88.7 °F 52 °F 30 in ESE 7.8 mph 14 mph 28.5% 0 in
17:44 88.3 °F 52.2 °F 30 in ESE 8.1 mph 15 mph 29.2% 0 in
17:49 88.2 °F 52.9 °F 30 in ESE 8.1 mph 12.7 mph 30.1% 0 in
17:54 88.2 °F 52.7 °F 30 in ESE 8.1 mph 14 mph 30% 0 in
17:59 87.8 °F 52.5 °F 30 in ESE 8.5 mph 15.2 mph 30% 0 in
18:04 87.4 °F 52.5 °F 30 in ESE 9.2 mph 15 mph 30.4% 0 in
18:09 87.4 °F 51.8 °F 30 in ESE 8.9 mph 16.1 mph 29.6% 0 in
18:14 87.3 °F 51.3 °F 30 in ESE 8.5 mph 17.3 mph 29.1% 0 in
18:19 87.1 °F 51.1 °F 30 in ESE 8.5 mph 13.8 mph 29% 0 in
18:24 86.9 °F 50 °F 30 in ESE 8.5 mph 14 mph 28.1% 0 in
18:29 86.9 °F 49.8 °F 30 in ESE 8.2 mph 13.8 mph 28% 0 in
18:34 86.7 °F 49.8 °F 30 in SE 7.6 mph 14 mph 28% 0 in
18:39 86.5 °F 50.4 °F 30 in SE 7.5 mph 13 mph 28.8% 0 in
18:44 86.4 °F 50.7 °F 30 in ESE 7.4 mph 13.8 mph 29.4% 0 in
18:49 86.2 °F 51.4 °F 30 in ESE 7.4 mph 12.7 mph 30.5% 0 in
18:54 85.8 °F 51.8 °F 30 in SE 7.4 mph 10.7 mph 31% 0 in
18:59 85.6 °F 52 °F 30 in SE 7 mph 10.7 mph 31.4% 0 in
19:04 85.5 °F 52.2 °F 30 in SE 6.4 mph 10.4 mph 32% 0 in
19:09 85.1 °F 52.3 °F 30 in ESE 6.2 mph 10.4 mph 32.5% 0 in
19:14 84.9 °F 52.5 °F 30 in SE 5.9 mph 11.8 mph 33% 0 in
19:19 84.6 °F 52.9 °F 30 in SE 5.9 mph 10.7 mph 33.8% 0 in
19:24 84.4 °F 52.9 °F 30 in SE 5.9 mph 10.4 mph 34% 0 in
19:29 84 °F 52.2 °F 30 in SE 6.1 mph 11.5 mph 33.4% 0 in
19:34 83.8 °F 51.6 °F 30 in SE 6.4 mph 10.4 mph 33% 0 in
19:39 83.7 °F 51.1 °F 30.1 in ESE 6.3 mph 10.4 mph 32.6% 0 in
19:44 83.3 °F 50.5 °F 30.1 in ESE 6.2 mph 9.2 mph 32.2% 0 in
19:49 82.9 °F 50.2 °F 30.1 in ESE 5.6 mph 6.9 mph 32% 0 in
19:54 82.8 °F 50.4 °F 30.1 in SE 4.3 mph 5.9 mph 32.7% 0 in
19:59 82.6 °F 51.3 °F 30.1 in SSO 4 mph 4.7 mph 33.8% 0 in
20:04 82.4 °F 53.4 °F 30.1 in SO 3.6 mph 8.1 mph 37% 0 in
20:09 82 °F 54 °F 30.1 in OSO 3.7 mph 6.9 mph 38% 0 in
20:14 81.9 °F 54.7 °F 30.1 in SO 4 mph 6.9 mph 39.2% 0 in
20:19 81.5 °F 55 °F 30.1 in SSO 3.9 mph 6.9 mph 40.3% 0 in
20:24 81.1 °F 55.4 °F 30.1 in SSO 3.6 mph 6.2 mph 41.1% 0 in
20:29 81 °F 55.8 °F 30.1 in SO 3.6 mph 6.2 mph 42.2% 0 in
20:34 80.8 °F 56.1 °F 30.1 in SO 3.6 mph 5.8 mph 43% 0 in
20:39 80.4 °F 56.3 °F 30.1 in SSE 3.2 mph 4.6 mph 43.5% 0 in
20:44 80.2 °F 56.3 °F 30.1 in Sur 2.4 mph 2.9 mph 44% 0 in
20:49 80.2 °F 56.3 °F 30.1 in Sur 2.1 mph 2.4 mph 44% 0 in
20:54 80.1 °F 56.5 °F 30.1 in Sur 1.4 mph 2.9 mph 44.6% 0 in
20:59 79.9 °F 56.8 °F 30.1 in OSO 1.6 mph 4.6 mph 45.4% 0 in
21:04 79.3 °F 57.2 °F 30.1 in ONO 1.8 mph 3.5 mph 46.5% 0 in
21:09 79.2 °F 57.2 °F 30.1 in ONO 2 mph 2.9 mph 47% 0 in
21:14 79 °F 57.6 °F 30.1 in ONO 2.4 mph 4.6 mph 47.9% 0 in
21:19 78.6 °F 57.2 °F 30.1 in Oeste 2.3 mph 4.7 mph 48% 0 in
21:24 78.3 °F 57 °F 30.1 in Oeste 2 mph 6.2 mph 48% 0 in
21:29 77.9 °F 57.2 °F 30.1 in OSO 2.5 mph 5.8 mph 49% 0 in
21:34 77.7 °F 57 °F 30.1 in OSO 3.6 mph 5.2 mph 49% 0 in
21:39 77.5 °F 57.2 °F 30.1 in OSO 3.4 mph 4.6 mph 49.6% 0 in
21:44 77.5 °F 57.4 °F 30.1 in OSO 3.1 mph 3.6 mph 50% 0 in
21:49 77.5 °F 57.4 °F 30.1 in OSO 2.7 mph 2.4 mph 50% 0 in
21:54 77.4 °F 57.4 °F 30.1 in OSO 1.8 mph 2.9 mph 50% 0 in
21:59 77.2 °F 57.6 °F 30.1 in OSO 1.8 mph 2.4 mph 50.8% 0 in
22:04 77 °F 57.6 °F 30.1 in OSO 1.8 mph   51% 0 in
22:09 76.8 °F 57.6 °F 30.1 in OSO 1.2 mph 3.5 mph 51.4% 0 in
22:14 76.6 °F 57.7 °F 30.1 in Calm   3.5 mph 52% 0 in
22:19 76.5 °F 58.1 °F 30.1 in OSO 0.5 mph 4.3 mph 53% 0 in
22:24 76.5 °F 59.4 °F 30.1 in SSO 1.4 mph 5.9 mph 55.7% 0 in
22:29 76.3 °F 60.1 °F 30.1 in Sur 2.1 mph 5.8 mph 57.5% 0 in
22:34 75.9 °F 60.4 °F 30.1 in Sur 3.6 mph 5.9 mph 58.7% 0 in
22:39 75.7 °F 60.6 °F 30.1 in Sur 3.7 mph 5.9 mph 59.7% 0 in
22:44 75.6 °F 60.6 °F 30.1 in SSE 4 mph 6.2 mph 60% 0 in
22:49 75.4 °F 60.4 °F 30.1 in Sur 4 mph 4.7 mph 60% 0 in
22:54 75.4 °F 60.6 °F 30.1 in SSO 4 mph 5.2 mph 60.3% 0 in
22:59 75.2 °F 61 °F 30.1 in SO 3.9 mph 5.8 mph 61.4% 0 in
23:04 75 °F 61.2 °F 30.1 in SO 3.6 mph 4.6 mph 62% 0 in
23:09 75 °F 61.2 °F 30.1 in Sur 3.4 mph 4.7 mph 62% 0 in
23:10 75 °F 61.2 °F 30.1 in SE 2.9 mph 4.6 mph 62% 0 in
Murcia-Puente Tocinos, España
Compliments of Weather Underground - 2.75 mb

La estación de MeteoMurcia.com, publica sus datos en los siguientes proyectos:

Weather Underground PWS IMURCIAP2 Meteoclimatic www.awekas.at

W3Counter
Web Analytics